NCAR-RAP Real-Time Weather Data

Output produced by METARs form (08 May 2021  15:58 UTC)
found at http://weather.rap.ucar.edu/surface/
 
KBDL 081551Z 01005KT 10SM FEW050 FEW210 OVC250 13/01 A2985 RMK AO2 SLP108 T01330006
KBDL 081451Z VRB04KT 10SM FEW045 FEW080 OVC250 13/01 A2987 RMK AO2 SLP114 T01280011 50002
KBDL 081351Z VRB04KT 10SM FEW048 BKN065 OVC250 12/02 A2987 RMK AO2 SLP117 T01170022
KBDL 081251Z 02006KT 10SM BKN055 OVC070 09/03 A2988 RMK AO2 SLP118 T00940028
KBDL 081151Z 33005KT 10SM BKN080 BKN160 OVC250 09/04 A2986 RMK AO2 SLP112 T00890039 10089 20067 53010
KBDL 081051Z 32003KT 10SM FEW070 BKN090 BKN180 OVC250 08/03 A2984 RMK AO2 SLP105 T00780033
KBDL 080951Z 34003KT 10SM BKN100 BKN180 OVC250 07/04 A2983 RMK AO2 SLP101 T00720044
KBDL 080851Z 01003KT 10SM OVC110 07/04 A2983 RMK AO2 SLP101 T00670039 56013
KBDL 080751Z 04003KT 10SM BKN110 BKN180 OVC250 07/04 A2984 RMK AO2 SLP104 T00720044
KBDL 080651Z 00000KT 10SM FEW060 FEW100 OVC130 08/04 A2985 RMK AO2 SLP108 T00780044
KBDL 080551Z 01003KT 10SM SCT060 BKN100 OVC180 08/04 A2987 RMK AO2 SLP114 T00780044 10122 20078 58010
KBDL 080451Z 00000KT 10SM FEW029 BKN050 OVC060 10/03 A2989 RMK AO2 SLP122 T01000028 401830050
KBDL 080351Z 00000KT 10SM FEW050 BKN075 OVC100 10/03 A2989 RMK AO2 SLP122 T01000033
KBDL 080251Z 21004KT 10SM FEW055 FEW090 BKN120 OVC150 10/03 A2990 RMK AO2 SLP124 T01000028 53003
KBDL 080151Z 21003KT 10SM FEW055 BKN210 BKN250 10/03 A2989 RMK AO2 SLP122 T01000028
KBDL 080051Z 20005KT 10SM FEW060 SCT085 BKN250 11/02 A2989 RMK AO2 SLP122 T01110022